createdAt,value
2022-10-21T00:00:48.545Z,96809.53
2022-10-21T00:01:50.447Z,96814.34
2022-10-21T00:02:52.373Z,96808.28
2022-10-21T00:03:54.204Z,96810.31
2022-10-21T00:04:56.137Z,96812.72
2022-10-21T00:05:57.967Z,96805.91
2022-10-21T00:06:59.830Z,96810.31
2022-10-21T00:08:01.564Z,96811.34
2022-10-21T00:09:03.597Z,96809.09
2022-10-21T00:10:06.315Z,96812.31
2022-10-21T00:11:09.266Z,96812.88
2022-10-21T00:12:11.115Z,96818.34
2022-10-21T00:13:12.996Z,96812.66
2022-10-21T00:14:14.788Z,96816.28
2022-10-21T00:15:16.653Z,96816.66
2022-10-21T00:16:19.212Z,96816.22
2022-10-21T00:17:21.360Z,96815.78
2022-10-21T00:18:23.083Z,96812.38
2022-10-21T00:19:24.971Z,96818.22
2022-10-21T00:20:26.751Z,96810.69
2022-10-21T00:21:28.525Z,96811.28
2022-10-21T00:22:30.372Z,96809.22
2022-10-21T00:23:32.101Z,96808.22
2022-10-21T00:24:33.968Z,96810.41
2022-10-21T00:25:35.829Z,96801.53
2022-10-21T00:26:38.506Z,96803.69
2022-10-21T00:27:40.886Z,96801.44
2022-10-21T00:28:43.558Z,96800.44
2022-10-21T00:29:45.356Z,96804.66
2022-10-21T00:30:47.167Z,96799.19
2022-10-21T00:31:48.944Z,96790.53
2022-10-21T00:32:50.816Z,96801.81
2022-10-21T00:33:52.621Z,96797.94
2022-10-21T00:34:54.378Z,96796.13
2022-10-21T00:36:03.037Z,96792.91
2022-10-21T00:37:04.877Z,96805.44
2022-10-21T00:38:07.203Z,96798.03
2022-10-21T00:39:08.995Z,96800.88
2022-10-21T00:40:10.894Z,96802.13
2022-10-21T00:41:13.736Z,96798.13
2022-10-21T00:42:19.631Z,96801.97
2022-10-21T00:43:21.864Z,96803.78
2022-10-21T00:44:23.684Z,96801.38
2022-10-21T00:45:29.527Z,96800.38
2022-10-21T00:46:37.171Z,96797.16
2022-10-21T00:47:45.029Z,96800.38
2022-10-21T00:48:51.759Z,96799.78
2022-10-21T00:49:58.740Z,96796.13
2022-10-21T00:51:00.464Z,96793.75
2022-10-21T00:52:03.888Z,96793.75
2022-10-21T00:53:08.079Z,96793.53
2022-10-21T00:54:10.300Z,96793.88
2022-10-21T00:55:12.251Z,96788.22
2022-10-21T00:56:16.821Z,96789.81
2022-10-21T00:57:19.771Z,96794.84
2022-10-21T00:58:22.860Z,96794.84
2022-10-21T00:59:27.225Z,96803.28
2022-10-21T01:00:29.042Z,96811.94
2022-10-21T01:01:31.286Z,96807.94
2022-10-21T01:02:33.150Z,96816.38
2022-10-21T01:03:35.831Z,96811.72
2022-10-21T01:04:37.747Z,96817.53
2022-10-21T01:05:39.679Z,96811.25
2022-10-21T01:06:42.963Z,96814.25
2022-10-21T01:07:47.373Z,96813.44
2022-10-21T01:08:49.515Z,96824.34
2022-10-21T01:09:51.864Z,96831.63
2022-10-21T01:10:54.282Z,96837.53
2022-10-21T01:11:56.618Z,96837.75
2022-10-21T01:13:09.336Z,96833.97
2022-10-21T01:14:28.496Z,96840.91
2022-10-21T01:15:33.264Z,96845.59
2022-10-21T01:16:43.120Z,96853.09
2022-10-21T01:17:47.839Z,96853.75
2022-10-21T01:18:49.791Z,96857.41
2022-10-21T01:20:10.631Z,96860.81
2022-10-21T01:21:12.375Z,96864.66
2022-10-21T01:22:33.020Z,96858.03
2022-10-21T01:25:14.019Z,96860.91
2022-10-21T01:26:25.762Z,96861.75
2022-10-21T01:27:30.324Z,96856.72
2022-10-21T01:28:50.570Z,96859.34
2022-10-21T01:30:11.170Z,96850.81
2022-10-21T01:31:22.186Z,96857.69
2022-10-21T01:32:42.755Z,96847.78
2022-10-21T01:33:50.277Z,96857.81
2022-10-21T01:34:55.042Z,96856.22
2022-10-21T01:36:08.839Z,96861.88
2022-10-21T01:37:30.548Z,96859.84
2022-10-21T01:38:36.079Z,96862.03
2022-10-21T01:39:37.779Z,96864.66
2022-10-21T01:40:52.266Z,96874.69
2022-10-21T01:41:57.254Z,96874.69
2022-10-21T01:43:03.151Z,96876.50
2022-10-21T01:44:16.984Z,96883.34
2022-10-21T01:45:30.793Z,96884.94
2022-10-21T01:46:38.751Z,96889.16
2022-10-21T01:47:43.549Z,96887.94
2022-10-21T01:48:48.161Z,96890.34
2022-10-21T01:49:54.047Z,96883.28
2022-10-21T01:50:59.049Z,96889.75
2022-10-21T01:52:02.723Z,96888.94
2022-10-21T01:53:10.269Z,96891.34
2022-10-21T01:54:19.911Z,96891.16
2022-10-21T01:55:23.337Z,96896.59
2022-10-21T01:56:26.148Z,96903.06
2022-10-21T01:57:30.178Z,96901.91
2022-10-21T01:58:34.606Z,96900.88
2022-10-21T01:59:37.756Z,96906.09
2022-10-21T02:00:40.057Z,96906.09
2022-10-21T02:01:43.479Z,96904.28
2022-10-21T02:02:47.861Z,96903.50
2022-10-21T02:03:53.216Z,96908.72
2022-10-21T02:04:56.503Z,96909.75
2022-10-21T02:05:58.704Z,96911.78
2022-10-21T02:07:00.515Z,96919.63
2022-10-21T02:08:02.395Z,96918.81
2022-10-21T02:09:04.475Z,96919.63
2022-10-21T02:10:06.499Z,96921.22
2022-10-21T02:11:09.833Z,96923.84
2022-10-21T02:12:11.728Z,96915.00
2022-10-21T02:13:17.648Z,96924.63
2022-10-21T02:14:28.378Z,96907.56
2022-10-21T02:15:30.761Z,96914.63
2022-10-21T02:16:35.984Z,96916.19
2022-10-21T02:17:39.690Z,96915.41
2022-10-21T02:18:41.524Z,96915.41
2022-10-21T02:19:43.320Z,96914.63
2022-10-21T02:20:45.937Z,96904.94
2022-10-21T02:21:49.895Z,96913.59
2022-10-21T02:22:51.717Z,96910.97
2022-10-21T02:23:55.678Z,96908.78
2022-10-21T02:25:03.677Z,96904.56
2022-10-21T02:26:05.729Z,96910.81
2022-10-21T02:27:07.568Z,96911.81
2022-10-21T02:28:10.107Z,96915.47
2022-10-21T02:29:13.193Z,96925.94
2022-10-21T02:30:15.376Z,96920.91
2022-10-21T02:31:17.226Z,96920.91
2022-10-21T02:32:26.269Z,96927.19
2022-10-21T02:33:36.828Z,96925.56
2022-10-21T02:34:42.399Z,96928.38
2022-10-21T02:36:02.926Z,96929.22
2022-10-21T02:37:37.117Z,96927.59
2022-10-21T02:38:42.831Z,96939.09
2022-10-21T02:39:49.054Z,96932.03
2022-10-21T02:41:01.272Z,96939.88
2022-10-21T02:42:04.926Z,96939.09
2022-10-21T02:43:12.520Z,96927.59
2022-10-21T02:44:14.439Z,96938.06
2022-10-21T02:45:17.037Z,96932.81
2022-10-21T02:46:18.917Z,96945.91
2022-10-21T02:47:20.704Z,96948.53
2022-10-21T02:48:22.479Z,96945.13
2022-10-21T02:49:24.294Z,96952.19
2022-10-21T02:50:26.204Z,96953.19
2022-10-21T02:51:28.004Z,96950.56
2022-10-21T02:52:29.839Z,96942.72
2022-10-21T02:53:31.875Z,96949.97
2022-10-21T02:54:33.662Z,96946.19
2022-10-21T02:55:35.504Z,96946.59
2022-10-21T02:56:37.314Z,96949.53
2022-10-21T02:57:39.172Z,96950.81
2022-10-21T02:58:41.183Z,96953.03
2022-10-21T02:59:42.945Z,96947.22
2022-10-21T03:00:44.861Z,96955.31
2022-10-21T03:01:46.701Z,96948.06
2022-10-21T03:02:48.608Z,96946.44
2022-10-21T03:03:50.435Z,96951.84
2022-10-21T03:04:52.152Z,96947.22
2022-10-21T03:05:53.976Z,96950.41
2022-10-21T03:06:55.747Z,96960.09
2022-10-21T03:07:57.523Z,96955.25
2022-10-21T03:08:59.397Z,96952.84
2022-10-21T03:10:01.215Z,96951.84
2022-10-21T03:11:03.150Z,96951.84
2022-10-21T03:12:04.923Z,96963.09
2022-10-21T03:13:06.768Z,96958.50
2022-10-21T03:14:08.515Z,96959.72
2022-10-21T03:15:10.531Z,96953.69
2022-10-21T03:16:12.432Z,96948.47
2022-10-21T03:17:14.277Z,96949.25
2022-10-21T03:18:16.444Z,96950.06
2022-10-21T03:19:18.196Z,96946.63
2022-10-21T03:20:20.088Z,96958.91
2022-10-21T03:21:22.058Z,96946.88
2022-10-21T03:22:23.838Z,96948.66
2022-10-21T03:23:25.596Z,96943.22
2022-10-21T03:24:28.705Z,96944.25
2022-10-21T03:25:35.278Z,96945.25
2022-10-21T03:26:37.643Z,96947.88
2022-10-21T03:27:39.903Z,96950.47
2022-10-21T03:28:41.743Z,96952.09
2022-10-21T03:29:43.470Z,96951.50
2022-10-21T03:30:45.256Z,96952.72
2022-10-21T03:31:47.080Z,96951.13
2022-10-21T03:32:48.876Z,96954.72
2022-10-21T03:33:50.668Z,96963.00
2022-10-21T03:34:52.430Z,96962.22
2022-10-21T03:35:54.755Z,96965.63
2022-10-21T03:36:56.682Z,96963.00
2022-10-21T03:37:58.521Z,96967.22
2022-10-21T03:39:00.302Z,96960.19
2022-10-21T03:40:02.132Z,96957.56
2022-10-21T03:41:04.031Z,96964.59
2022-10-21T03:42:05.873Z,96963.59
2022-10-21T03:43:07.744Z,96948.69
2022-10-21T03:44:09.619Z,96953.13
2022-10-21T03:45:11.887Z,96948.09
2022-10-21T03:46:13.711Z,96951.53
2022-10-21T03:47:15.567Z,96950.13
2022-10-21T03:48:17.311Z,96955.56
2022-10-21T03:49:21.312Z,96952.16
2022-10-21T03:50:26.525Z,96949.53
2022-10-21T03:51:28.792Z,96939.50
2022-10-21T03:52:30.651Z,96932.84
2022-10-21T03:53:42.788Z,96933.66
2022-10-21T03:54:45.292Z,96941.13
2022-10-21T03:55:47.039Z,96935.50
2022-10-21T03:56:48.985Z,96933.28
2022-10-21T03:57:51.295Z,96929.28
2022-10-21T03:58:56.401Z,96922.88
2022-10-21T04:00:00.424Z,96929.72
2022-10-21T04:01:02.271Z,96926.06
2022-10-21T04:02:04.181Z,96918.81
2022-10-21T04:03:06.035Z,96921.44
2022-10-21T04:04:07.839Z,96919.47
2022-10-21T04:05:09.911Z,96917.63
2022-10-21T04:06:11.754Z,96918.44
2022-10-21T04:07:13.601Z,96907.97
2022-10-21T04:08:15.471Z,96906.38
2022-10-21T04:09:17.308Z,96901.94
2022-10-21T04:10:19.174Z,96901.94
2022-10-21T04:11:20.997Z,96899.94
2022-10-21T04:12:22.766Z,96899.72
2022-10-21T04:13:24.979Z,96898.94
2022-10-21T04:14:26.744Z,96899.13
2022-10-21T04:15:28.705Z,96890.72
2022-10-21T04:16:30.623Z,96893.13
2022-10-21T04:17:32.441Z,96901.94
2022-10-21T04:18:34.889Z,96894.13
2022-10-21T04:19:36.764Z,96896.72
2022-10-21T04:20:38.609Z,96897.75
2022-10-21T04:21:40.379Z,96896.72
2022-10-21T04:22:42.226Z,96895.94
2022-10-21T04:23:44.149Z,96900.56
2022-10-21T04:24:45.954Z,96899.19
2022-10-21T04:25:48.087Z,96897.16
2022-10-21T04:26:49.900Z,96896.94
2022-10-21T04:27:51.729Z,96897.38
2022-10-21T04:28:53.535Z,96894.53
2022-10-21T04:29:55.268Z,96901.56
2022-10-21T04:30:57.163Z,96897.56
2022-10-21T04:31:58.996Z,96892.19
2022-10-21T04:33:00.804Z,96897.03
2022-10-21T04:34:02.695Z,96886.78
2022-10-21T04:35:04.603Z,96890.78
2022-10-21T04:36:06.539Z,96896.63
2022-10-21T04:37:08.361Z,96896.81
2022-10-21T04:38:10.644Z,96896.63
2022-10-21T04:39:12.455Z,96891.00
2022-10-21T04:40:14.249Z,96892.19
2022-10-21T04:41:16.065Z,96893.81
2022-10-21T04:42:17.906Z,96890.03
2022-10-21T04:43:19.720Z,96884.06
2022-10-21T04:44:21.751Z,96878.00
2022-10-21T04:45:23.532Z,96886.00
2022-10-21T04:46:25.335Z,96884.00
2022-10-21T04:47:27.230Z,96885.38
2022-10-21T04:48:29.035Z,96890.00
2022-10-21T04:49:30.901Z,96882.75
2022-10-21T04:50:35.119Z,96878.31
2022-10-21T04:51:36.890Z,96871.88
2022-10-21T04:52:40.145Z,96870.69
2022-10-21T04:53:42.296Z,96867.44
2022-10-21T04:54:44.197Z,96863.03
2022-10-21T04:55:46.173Z,96851.19
2022-10-21T04:56:47.923Z,96844.56
2022-10-21T04:57:49.774Z,96847.41
2022-10-21T04:58:51.542Z,96841.34
2022-10-21T04:59:53.312Z,96836.50
2022-10-21T05:00:55.273Z,96825.66
2022-10-21T05:01:57.176Z,96827.28
2022-10-21T05:02:59.113Z,96835.72
2022-10-21T05:04:00.946Z,96827.69
2022-10-21T05:05:02.724Z,96827.50
2022-10-21T05:06:04.760Z,96830.50
2022-10-21T05:07:06.539Z,96830.91
2022-10-21T05:08:11.502Z,96831.28
2022-10-21T05:09:13.851Z,96833.09
2022-10-21T05:10:15.694Z,96834.34
2022-10-21T05:11:17.511Z,96830.56
2022-10-21T05:12:19.333Z,96829.75
2022-10-21T05:13:21.189Z,96825.91
2022-10-21T05:14:23.078Z,96820.28
2022-10-21T05:15:25.268Z,96824.69
2022-10-21T05:16:27.149Z,96823.06
2022-10-21T05:17:28.952Z,96822.66
2022-10-21T05:18:31.575Z,96831.28
2022-10-21T05:19:33.549Z,96821.22
2022-10-21T05:20:35.367Z,96830.88
2022-10-21T05:22:43.890Z,96830.91
2022-10-21T05:23:45.741Z,96828.28
2022-10-21T05:24:47.482Z,96822.84
2022-10-21T05:25:51.881Z,96824.47
2022-10-21T05:26:53.747Z,96821.88
2022-10-21T05:27:55.505Z,96823.66
2022-10-21T05:29:00.414Z,96822.66
2022-10-21T05:30:02.321Z,96823.66
2022-10-21T05:31:04.259Z,96821.47
2022-10-21T05:32:06.161Z,96820.06
2022-10-21T05:33:08.148Z,96811.44
2022-10-21T05:34:10.105Z,96806.38
2022-10-21T05:35:12.664Z,96805.53
2022-10-21T05:36:14.548Z,96807.13
2022-10-21T05:37:16.392Z,96802.28
2022-10-21T05:38:18.207Z,96806.72
2022-10-21T05:39:19.983Z,96802.69
2022-10-21T05:40:21.779Z,96798.84
2022-10-21T05:41:23.621Z,96797.41
2022-10-21T05:42:25.487Z,96798.19
2022-10-21T05:43:28.259Z,96794.78
2022-10-21T05:44:30.039Z,96789.75
2022-10-21T05:45:31.815Z,96794.63
2022-10-21T05:46:33.645Z,96790.84
2022-10-21T05:47:35.483Z,96794.03
2022-10-21T05:48:37.715Z,96795.44
2022-10-21T05:49:39.529Z,96794.84
2022-10-21T05:50:41.301Z,96803.47
2022-10-21T05:51:44.932Z,96793.03
2022-10-21T05:52:46.831Z,96798.44
2022-10-21T05:53:48.584Z,96794.63
2022-10-21T05:54:50.351Z,96798.63
2022-10-21T05:55:58.322Z,96792.97
2022-10-21T05:57:00.121Z,96795.81
2022-10-21T05:58:02.013Z,96792.19
2022-10-21T05:59:06.607Z,96800.22
2022-10-21T06:00:11.617Z,96796.03
2022-10-21T06:01:13.535Z,96797.25
2022-10-21T06:02:15.388Z,96797.44
2022-10-21T06:03:17.194Z,96805.69
2022-10-21T06:04:18.958Z,96797.44
2022-10-21T06:05:21.380Z,96794.41
2022-10-21T06:06:23.217Z,96798.63
2022-10-21T06:07:25.048Z,96799.63
2022-10-21T06:08:27.188Z,96799.44
2022-10-21T06:09:28.954Z,96806.63
2022-10-21T06:10:30.699Z,96808.25
2022-10-21T06:11:32.545Z,96802.56
2022-10-21T06:12:34.400Z,96809.41
2022-10-21T06:13:36.365Z,96806.41
2022-10-21T06:14:38.372Z,96807.56
2022-10-21T06:15:40.227Z,96811.41
2022-10-21T06:16:41.980Z,96809.38
2022-10-21T06:17:43.779Z,96800.69
2022-10-21T06:18:45.708Z,96799.50
2022-10-21T06:19:50.841Z,96800.09
2022-10-21T06:20:52.937Z,96806.91
2022-10-21T06:21:54.804Z,96803.69
2022-10-21T06:22:58.146Z,96798.69
2022-10-21T06:24:00.067Z,96802.91
2022-10-21T06:25:01.923Z,96801.69
2022-10-21T06:26:08.477Z,96797.03
2022-10-21T06:27:10.339Z,96795.22
2022-10-21T06:28:12.140Z,96803.88
2022-10-21T06:29:16.179Z,96790.56
2022-10-21T06:30:18.049Z,96798.41
2022-10-21T06:31:21.963Z,96799.59
2022-10-21T06:32:23.784Z,96798.16
2022-10-21T06:33:27.159Z,96800.75
2022-10-21T06:34:29.361Z,96797.72
2022-10-21T06:35:31.144Z,96794.53
2022-10-21T06:36:32.982Z,96798.53
2022-10-21T06:37:34.874Z,96792.28
2022-10-21T06:38:38.062Z,96799.13
2022-10-21T06:39:39.892Z,96795.50
2022-10-21T06:40:42.182Z,96795.88
2022-10-21T06:41:43.952Z,96783.78
2022-10-21T06:42:45.695Z,96786.63
2022-10-21T06:43:51.226Z,96793.47
2022-10-21T06:44:57.906Z,96787.78
2022-10-21T06:46:02.265Z,96789.81
2022-10-21T06:47:04.139Z,96792.44
2022-10-21T06:48:06.000Z,96790.84
2022-10-21T06:49:07.875Z,96788.03
2022-10-21T06:50:09.751Z,96791.06
2022-10-21T06:51:22.098Z,96785.63
2022-10-21T06:52:24.038Z,96773.72
2022-10-21T06:53:25.954Z,96784.19
2022-10-21T06:54:27.868Z,96781.63
2022-10-21T06:55:29.674Z,96775.56
2022-10-21T06:56:32.409Z,96780.38
2022-10-21T06:57:34.304Z,96786.78
2022-10-21T06:58:37.209Z,96788.97
2022-10-21T06:59:39.083Z,96784.56
2022-10-21T07:00:40.893Z,96790.00
2022-10-21T07:01:59.034Z,96800.00
2022-10-21T07:03:02.243Z,96798.81
2022-10-21T07:04:04.602Z,96802.00
2022-10-21T07:05:06.631Z,96797.97
2022-10-21T07:06:08.479Z,96790.13
2022-10-21T07:07:10.291Z,96789.72
2022-10-21T07:08:12.887Z,96783.25
2022-10-21T07:09:15.264Z,96786.31
2022-10-21T07:10:17.092Z,96776.63
2022-10-21T07:11:18.855Z,96776.19
2022-10-21T07:12:20.740Z,96786.81
2022-10-21T07:13:25.965Z,96781.72
2022-10-21T07:14:28.101Z,96784.72
2022-10-21T07:15:29.927Z,96787.13
2022-10-21T07:16:35.320Z,96795.56
2022-10-21T07:17:37.542Z,96785.47
2022-10-21T07:18:42.596Z,96782.84
2022-10-21T07:19:44.981Z,96783.84
2022-10-21T07:20:46.742Z,96780.44
2022-10-21T07:21:48.802Z,96781.00
2022-10-21T07:22:50.620Z,96787.88
2022-10-21T07:23:52.845Z,96784.00
2022-10-21T07:24:54.659Z,96782.19
2022-10-21T07:25:56.515Z,96783.34
2022-10-21T07:26:58.293Z,96776.66
2022-10-21T07:28:00.315Z,96780.44
2022-10-21T07:29:05.330Z,96785.00
2022-10-21T07:30:07.327Z,96786.41
2022-10-21T07:31:09.070Z,96776.16
2022-10-21T07:32:10.857Z,96781.75
2022-10-21T07:33:13.027Z,96785.53
2022-10-21T07:34:15.552Z,96788.16
2022-10-21T07:35:17.441Z,96783.72
2022-10-21T07:36:21.291Z,96778.47
2022-10-21T07:37:23.107Z,96781.88
2022-10-21T07:38:24.941Z,96776.44
2022-10-21T07:39:27.319Z,96772.81
2022-10-21T07:40:29.336Z,96775.19
2022-10-21T07:41:32.993Z,96773.72
2022-10-21T07:42:34.802Z,96771.69
2022-10-21T07:43:36.656Z,96773.09
2022-10-21T07:44:38.469Z,96770.00
2022-10-21T07:45:41.937Z,96771.63
2022-10-21T07:46:44.800Z,96779.81
2022-10-21T07:47:46.789Z,96774.38
2022-10-21T07:48:49.022Z,96772.31
2022-10-21T07:49:50.815Z,96778.16
2022-10-21T07:50:52.672Z,96777.72
2022-10-21T07:51:54.560Z,96773.28
2022-10-21T07:53:10.962Z,96771.22
2022-10-21T07:54:14.856Z,96776.03
2022-10-21T07:55:17.519Z,96779.44
2022-10-21T07:56:20.935Z,96769.56
2022-10-21T07:57:22.743Z,96768.31
2022-10-21T07:58:24.505Z,96772.56
2022-10-21T07:59:26.425Z,96762.88
2022-10-21T08:00:28.215Z,96758.00
2022-10-21T08:01:30.135Z,96752.75
2022-10-21T08:02:32.073Z,96765.84
2022-10-21T08:03:33.895Z,96758.78
2022-10-21T08:04:35.810Z,96755.13
2022-10-21T08:05:39.639Z,96757.19
2022-10-21T08:06:41.560Z,96760.03
2022-10-21T08:07:44.040Z,96757.41
2022-10-21T08:08:46.320Z,96755.13
2022-10-21T08:09:48.285Z,96750.13
2022-10-21T08:11:58.285Z,96746.69
2022-10-21T08:13:00.059Z,96743.28
2022-10-21T08:14:03.558Z,96743.50
2022-10-21T08:15:05.627Z,96750.34
2022-10-21T08:16:07.749Z,96751.72
2022-10-21T08:17:09.552Z,96747.63
2022-10-21T08:18:11.603Z,96741.38
2022-10-21T08:19:20.515Z,96738.75
2022-10-21T08:20:23.117Z,96730.06
2022-10-21T08:21:24.923Z,96734.09
2022-10-21T08:22:26.792Z,96736.72
2022-10-21T08:23:28.617Z,96729.84
2022-10-21T08:24:30.544Z,96729.06
2022-10-21T08:25:32.468Z,96724.41
2022-10-21T08:26:34.308Z,96721.31
2022-10-21T08:27:36.153Z,96720.88
2022-10-21T08:28:37.891Z,96721.03
2022-10-21T08:29:40.211Z,96722.97
2022-10-21T08:30:42.528Z,96718.50
2022-10-21T08:31:44.520Z,96707.22
2022-10-21T08:32:46.316Z,96710.41
2022-10-21T08:33:48.467Z,96707.91
2022-10-21T08:34:50.293Z,96705.84
2022-10-21T08:35:52.059Z,96706.22
2022-10-21T08:36:53.871Z,96696.28
2022-10-21T08:37:55.791Z,96697.91
2022-10-21T08:38:58.660Z,96694.81
2022-10-21T08:40:00.411Z,96690.13
2022-10-21T08:41:02.837Z,96688.91
2022-10-21T08:42:08.733Z,96678.16
2022-10-21T08:43:16.213Z,96680.13
2022-10-21T08:44:29.742Z,96679.66
2022-10-21T08:45:37.897Z,96676.81
2022-10-21T08:46:41.885Z,96678.16
2022-10-21T08:47:46.466Z,96676.34
2022-10-21T08:48:56.875Z,96680.34
2022-10-21T08:50:00.956Z,96673.50
2022-10-21T08:51:05.996Z,96667.47
2022-10-21T08:52:20.299Z,96670.88
2022-10-21T08:53:24.774Z,96662.56
2022-10-21T08:54:31.868Z,96658.66
2022-10-21T08:55:35.253Z,96659.25
2022-10-21T08:56:37.145Z,96659.03
2022-10-21T08:57:39.220Z,96658.53
2022-10-21T08:58:41.258Z,96654.69
2022-10-21T08:59:43.128Z,96656.03
2022-10-21T09:00:48.925Z,96653.50
2022-10-21T09:01:55.984Z,96652.59
2022-10-21T09:03:15.826Z,96642.66
2022-10-21T09:04:22.546Z,96640.03
2022-10-21T09:05:41.658Z,96640.84
2022-10-21T09:06:55.440Z,96634.22
2022-10-21T09:08:03.146Z,96631.84
2022-10-21T09:09:28.203Z,96627.72
2022-10-21T09:10:36.156Z,96628.50
2022-10-21T09:11:44.100Z,96623.25
2022-10-21T09:13:01.555Z,96617.44
2022-10-21T09:14:03.317Z,96622.94
2022-10-21T09:15:11.195Z,96627.94
2022-10-21T09:16:23.150Z,96633.75
2022-10-21T09:17:34.844Z,96628.50
2022-10-21T09:18:39.675Z,96619.84
2022-10-21T09:20:00.313Z,96614.13
2022-10-21T09:21:31.717Z,96619.22
2022-10-21T09:22:53.389Z,96615.38
2022-10-21T09:23:55.221Z,96616.72
2022-10-21T09:25:02.301Z,96611.81
2022-10-21T09:26:25.392Z,96613.94
2022-10-21T09:27:51.335Z,96606.97
2022-10-21T09:28:53.535Z,96611.53
2022-10-21T09:29:57.533Z,96615.06
2022-10-21T09:31:02.600Z,96600.09
2022-10-21T09:32:10.393Z,96602.28
2022-10-21T09:33:16.687Z,96601.00
2022-10-21T09:34:23.038Z,96594.47
2022-10-21T09:35:34.709Z,96588.75
2022-10-21T09:36:38.512Z,96589.09
2022-10-21T09:37:42.760Z,96593.84
2022-10-21T09:39:06.597Z,96590.22
2022-10-21T09:40:17.342Z,96595.47
2022-10-21T09:42:42.732Z,96588.13
2022-10-21T09:43:48.115Z,96588.94
2022-10-21T09:44:50.016Z,96581.84
2022-10-21T09:45:51.859Z,96578.97
2022-10-21T09:46:54.019Z,96585.03
2022-10-21T09:48:00.256Z,96580.59
2022-10-21T09:50:24.969Z,96575.06
2022-10-21T09:51:33.783Z,96575.91
2022-10-21T09:52:37.955Z,96566.72
2022-10-21T09:53:53.773Z,96563.06
2022-10-21T09:54:56.758Z,96565.00
2022-10-21T09:56:02.592Z,96567.34
2022-10-21T09:57:15.205Z,96564.25
2022-10-21T09:58:28.474Z,96569.84
2022-10-21T09:59:33.312Z,96556.47
2022-10-21T10:00:46.255Z,96564.91
2022-10-21T10:01:48.347Z,96562.03
2022-10-21T10:02:50.277Z,96563.41
2022-10-21T10:03:52.972Z,96568.16
2022-10-21T10:04:54.840Z,96555.81
2022-10-21T10:05:56.828Z,96562.44
2022-10-21T10:07:03.020Z,96555.59
2022-10-21T10:08:23.186Z,96560.13
2022-10-21T10:09:25.748Z,96557.81
2022-10-21T10:10:32.577Z,96552.56
2022-10-21T10:11:34.433Z,96553.91
2022-10-21T10:12:36.568Z,96544.75
2022-10-21T10:13:39.905Z,96545.31
2022-10-21T10:14:45.347Z,96553.75
2022-10-21T10:15:47.225Z,96544.56
2022-10-21T10:16:49.027Z,96540.94
2022-10-21T10:17:50.878Z,96544.09
2022-10-21T10:18:54.263Z,96538.84
2022-10-21T10:20:07.584Z,96538.28
2022-10-21T10:21:13.602Z,96539.63
2022-10-21T10:22:16.459Z,96542.81
2022-10-21T10:23:19.083Z,96540.19
2022-10-21T10:24:21.817Z,96539.97
2022-10-21T10:25:28.733Z,96534.16
2022-10-21T10:26:32.175Z,96538.59
2022-10-21T10:27:34.020Z,96537.78
2022-10-21T10:28:35.978Z,96530.69
2022-10-21T10:29:37.893Z,96526.50
2022-10-21T10:30:42.604Z,96532.53
2022-10-21T10:31:51.578Z,96528.88
2022-10-21T10:32:55.222Z,96530.47
2022-10-21T10:33:59.604Z,96529.69
2022-10-21T10:35:06.090Z,96528.88
2022-10-21T10:36:09.644Z,96533.88
2022-10-21T10:37:22.569Z,96527.59
2022-10-21T10:38:31.057Z,96530.78
2022-10-21T10:39:35.169Z,96521.59
2022-10-21T10:40:41.936Z,96521.38
2022-10-21T10:41:47.641Z,96526.13
2022-10-21T10:42:51.659Z,96513.53
2022-10-21T10:43:55.110Z,96519.34
2022-10-21T10:44:58.279Z,96511.72
2022-10-21T10:46:02.406Z,96508.25
2022-10-21T10:47:05.926Z,96503.00
2022-10-21T10:48:08.333Z,96508.03
2022-10-21T10:49:13.214Z,96515.13
2022-10-21T10:50:33.708Z,96507.78
2022-10-21T10:51:36.191Z,96506.28
2022-10-21T10:52:38.400Z,96506.81
2022-10-21T10:53:40.225Z,96510.81
2022-10-21T10:54:42.794Z,96505.88
2022-10-21T10:55:46.262Z,96504.03
2022-10-21T10:56:58.400Z,96500.63
2022-10-21T10:58:13.512Z,96507.47
2022-10-21T10:59:22.148Z,96500.38
2022-10-21T11:00:24.687Z,96504.34
2022-10-21T11:01:30.509Z,96505.41
2022-10-21T11:02:40.500Z,96498.53
2022-10-21T11:03:45.892Z,96494.88
2022-10-21T11:06:01.585Z,96492.25
2022-10-21T11:07:08.842Z,96487.78
2022-10-21T11:08:18.321Z,96491.19
2022-10-21T11:09:22.750Z,96492.25
2022-10-21T11:10:27.024Z,96493.59
2022-10-21T11:11:36.606Z,96497.56
2022-10-21T11:12:38.608Z,96500.19
2022-10-21T11:13:45.678Z,96497.56
2022-10-21T11:14:52.111Z,96494.69
2022-10-21T11:16:11.486Z,96489.19
2022-10-21T11:17:17.016Z,96485.72
2022-10-21T11:18:37.714Z,96491.31
2022-10-21T11:19:58.360Z,96481.34
2022-10-21T11:21:07.578Z,96481.41
2022-10-21T11:22:14.270Z,96470.91
2022-10-21T11:23:19.161Z,96462.53
2022-10-21T11:24:39.571Z,96463.38
2022-10-21T11:25:41.416Z,96462.94
2022-10-21T11:26:43.159Z,96461.69
2022-10-21T11:27:47.702Z,96462.53
2022-10-21T11:28:56.177Z,96464.41
2022-10-21T11:30:05.576Z,96468.41
2022-10-21T11:31:15.533Z,96459.69
2022-10-21T11:32:17.328Z,96472.38
2022-10-21T11:33:24.516Z,96460.53
2022-10-21T11:34:40.604Z,96463.16
2022-10-21T11:35:47.522Z,96472.44
2022-10-21T11:37:15.936Z,96470.34
2022-10-21T11:38:33.814Z,96461.13
2022-10-21T11:39:54.038Z,96457.19
2022-10-21T11:40:55.732Z,96456.94
2022-10-21T11:42:05.724Z,96456.94
2022-10-21T11:43:19.615Z,96463.00
2022-10-21T11:44:39.950Z,96451.97
2022-10-21T11:46:02.139Z,96448.03
2022-10-21T11:47:16.679Z,96450.97
2022-10-21T11:48:39.786Z,96447.03
2022-10-21T11:50:00.041Z,96442.84
2022-10-21T11:51:16.532Z,96443.16
2022-10-21T11:52:25.545Z,96446.06
2022-10-21T11:53:30.423Z,96446.66
2022-10-21T11:54:45.754Z,96447.44
2022-10-21T11:56:04.301Z,96452.94
2022-10-21T11:57:09.243Z,96451.91
2022-10-21T11:58:23.312Z,96455.81
2022-10-21T11:59:45.304Z,96452.94
2022-10-21T12:01:06.511Z,96447.69
2022-10-21T12:02:21.249Z,96449.53
2022-10-21T12:03:37.248Z,96447.44
2022-10-21T12:04:39.000Z,96456.91
2022-10-21T12:06:01.134Z,96455.88
2022-10-21T12:07:12.905Z,96460.91
2022-10-21T12:08:14.713Z,96450.91
2022-10-21T12:09:23.078Z,96446.41
2022-10-21T12:10:30.790Z,96447.75
2022-10-21T12:11:40.649Z,96449.34
2022-10-21T12:12:46.575Z,96450.69
2022-10-21T12:13:51.673Z,96448.84
2022-10-21T12:14:56.274Z,96438.28
2022-10-21T12:15:58.135Z,96447.28
2022-10-21T12:17:02.033Z,96445.44
2022-10-21T12:18:05.149Z,96443.31
2022-10-21T12:19:11.093Z,96440.19
2022-10-21T12:20:22.956Z,96438.63
2022-10-21T12:21:27.961Z,96441.81
2022-10-21T12:22:31.599Z,96445.00
2022-10-21T12:23:34.405Z,96439.72
2022-10-21T12:24:56.351Z,96434.44
2022-10-21T12:26:16.912Z,96432.88
2022-10-21T12:27:21.517Z,96438.69
2022-10-21T12:28:23.255Z,96435.56
2022-10-21T12:29:34.060Z,96437.38
2022-10-21T12:30:54.106Z,96437.38
2022-10-21T12:31:59.007Z,96441.38
2022-10-21T12:33:19.566Z,96444.81
2022-10-21T12:34:22.113Z,96438.47
2022-10-21T12:35:28.521Z,96441.91
2022-10-21T12:36:37.465Z,96442.69
2022-10-21T12:37:42.036Z,96444.56
2022-10-21T12:38:44.155Z,96435.03
2022-10-21T12:39:49.734Z,96444.81
2022-10-21T12:41:11.513Z,96444.00
2022-10-21T12:42:15.741Z,96442.16
2022-10-21T12:43:23.397Z,96447.44
2022-10-21T12:44:27.460Z,96442.94
2022-10-21T12:45:31.230Z,96447.19
2022-10-21T12:46:40.189Z,96450.31
2022-10-21T12:47:45.713Z,96445.28
2022-10-21T12:48:48.862Z,96446.13